sensor_id;sensor_type;location;lat;lon;timestamp;temperature;humidity
10812;DHT22;5458;51.496;7.334;2022-12-31T00:01:49;12.90;99.90
10812;DHT22;5458;51.496;7.334;2022-12-31T00:04:14;13.00;99.90
10812;DHT22;5458;51.496;7.334;2022-12-31T00:06:40;13.00;99.90
10812;DHT22;5458;51.496;7.334;2022-12-31T00:09:07;13.00;99.90
10812;DHT22;5458;51.496;7.334;2022-12-31T00:11:34;13.00;99.90
10812;DHT22;5458;51.496;7.334;2022-12-31T00:14:00;13.00;99.90
10812;DHT22;5458;51.496;7.334;2022-12-31T00:16:28;13.00;99.90
10812;DHT22;5458;51.496;7.334;2022-12-31T00:18:56;13.10;99.90
10812;DHT22;5458;51.496;7.334;2022-12-31T00:21:24;13.00;99.90
10812;DHT22;5458;51.496;7.334;2022-12-31T00:23:50;13.10;99.90
10812;DHT22;5458;51.496;7.334;2022-12-31T00:26:19;13.00;99.90
10812;DHT22;5458;51.496;7.334;2022-12-31T00:28:45;13.10;99.90
10812;DHT22;5458;51.496;7.334;2022-12-31T00:31:14;13.00;99.90
10812;DHT22;5458;51.496;7.334;2022-12-31T00:33:41;13.10;99.90
10812;DHT22;5458;51.496;7.334;2022-12-31T00:36:18;13.00;99.90
10812;DHT22;5458;51.496;7.334;2022-12-31T00:38:45;13.10;99.90
10812;DHT22;5458;51.496;7.334;2022-12-31T00:41:12;13.10;99.90
10812;DHT22;5458;51.496;7.334;2022-12-31T00:43:38;13.10;99.90
10812;DHT22;5458;51.496;7.334;2022-12-31T00:46:04;13.10;99.90
10812;DHT22;5458;51.496;7.334;2022-12-31T00:48:31;13.10;99.90
10812;DHT22;5458;51.496;7.334;2022-12-31T00:50:57;13.00;99.90
10812;DHT22;5458;51.496;7.334;2022-12-31T00:53:23;13.10;99.90
10812;DHT22;5458;51.496;7.334;2022-12-31T00:55:49;13.00;99.90
10812;DHT22;5458;51.496;7.334;2022-12-31T00:58:15;13.00;99.90
10812;DHT22;5458;51.496;7.334;2022-12-31T01:00:41;13.00;99.90
10812;DHT22;5458;51.496;7.334;2022-12-31T01:03:07;13.00;99.90
10812;DHT22;5458;51.496;7.334;2022-12-31T01:05:34;13.00;99.90
10812;DHT22;5458;51.496;7.334;2022-12-31T01:08:00;13.00;99.90
10812;DHT22;5458;51.496;7.334;2022-12-31T01:10:25;13.00;99.90
10812;DHT22;5458;51.496;7.334;2022-12-31T01:13:10;13.00;99.90
10812;DHT22;5458;51.496;7.334;2022-12-31T01:15:36;13.00;99.90
10812;DHT22;5458;51.496;7.334;2022-12-31T01:18:07;13.00;99.90
10812;DHT22;5458;51.496;7.334;2022-12-31T01:20:37;13.00;99.90
10812;DHT22;5458;51.496;7.334;2022-12-31T01:23:03;13.00;99.90
10812;DHT22;5458;51.496;7.334;2022-12-31T01:25:29;13.00;99.90
10812;DHT22;5458;51.496;7.334;2022-12-31T01:27:54;13.00;99.90
10812;DHT22;5458;51.496;7.334;2022-12-31T01:30:20;13.00;99.90
10812;DHT22;5458;51.496;7.334;2022-12-31T01:32:45;13.00;99.90
10812;DHT22;5458;51.496;7.334;2022-12-31T01:35:11;13.00;99.90
10812;DHT22;5458;51.496;7.334;2022-12-31T01:37:36;13.00;99.90
10812;DHT22;5458;51.496;7.334;2022-12-31T01:40:03;13.00;99.90
10812;DHT22;5458;51.496;7.334;2022-12-31T01:42:29;13.00;99.90
10812;DHT22;5458;51.496;7.334;2022-12-31T01:44:55;13.00;99.90
10812;DHT22;5458;51.496;7.334;2022-12-31T01:47:48;13.10;99.90
10812;DHT22;5458;51.496;7.334;2022-12-31T01:50:41;13.10;99.90
10812;DHT22;5458;51.496;7.334;2022-12-31T01:53:09;13.10;99.90
10812;DHT22;5458;51.496;7.334;2022-12-31T01:55:44;13.10;99.90
10812;DHT22;5458;51.496;7.334;2022-12-31T01:58:19;13.10;99.90
10812;DHT22;5458;51.496;7.334;2022-12-31T02:00:45;13.20;99.90
10812;DHT22;5458;51.496;7.334;2022-12-31T02:03:12;13.20;99.90
10812;DHT22;5458;51.496;7.334;2022-12-31T02:05:48;13.20;99.90
10812;DHT22;5458;51.496;7.334;2022-12-31T02:08:15;13.20;99.90
10812;DHT22;5458;51.496;7.334;2022-12-31T02:10:41;13.20;99.90
10812;DHT22;5458;51.496;7.334;2022-12-31T02:13:07;13.20;99.90
10812;DHT22;5458;51.496;7.334;2022-12-31T02:16:00;13.20;99.90
10812;DHT22;5458;51.496;7.334;2022-12-31T02:18:55;13.30;99.90
10812;DHT22;5458;51.496;7.334;2022-12-31T02:24:01;13.30;99.90
10812;DHT22;5458;51.496;7.334;2022-12-31T02:32:31;13.40;99.90
10812;DHT22;5458;51.496;7.334;2022-12-31T02:35:22;13.40;99.90
10812;DHT22;5458;51.496;7.334;2022-12-31T02:37:51;13.50;99.90
10812;DHT22;5458;51.496;7.334;2022-12-31T02:40:19;13.60;99.90
10812;DHT22;5458;51.496;7.334;2022-12-31T02:42:45;13.60;99.90
10812;DHT22;5458;51.496;7.334;2022-12-31T02:45:13;13.60;99.90
10812;DHT22;5458;51.496;7.334;2022-12-31T02:56:18;13.90;99.90
10812;DHT22;5458;51.496;7.334;2022-12-31T02:59:02;13.90;99.90
10812;DHT22;5458;51.496;7.334;2022-12-31T03:01:54;13.90;99.90
10812;DHT22;5458;51.496;7.334;2022-12-31T03:04:55;13.90;99.90
10812;DHT22;5458;51.496;7.334;2022-12-31T03:07:23;13.90;99.90
10812;DHT22;5458;51.496;7.334;2022-12-31T03:09:49;14.00;99.90
10812;DHT22;5458;51.496;7.334;2022-12-31T03:12:16;14.00;99.90
10812;DHT22;5458;51.496;7.334;2022-12-31T03:15:01;14.00;99.90
10812;DHT22;5458;51.496;7.334;2022-12-31T03:17:34;14.00;99.90
10812;DHT22;5458;51.496;7.334;2022-12-31T03:19:59;14.00;99.90
10812;DHT22;5458;51.496;7.334;2022-12-31T03:22:43;14.10;99.90
10812;DHT22;5458;51.496;7.334;2022-12-31T03:25:13;14.10;99.90
10812;DHT22;5458;51.496;7.334;2022-12-31T03:27:58;14.10;99.90
10812;DHT22;5458;51.496;7.334;2022-12-31T03:30:24;14.10;99.90
10812;DHT22;5458;51.496;7.334;2022-12-31T03:32:51;14.10;99.90
10812;DHT22;5458;51.496;7.334;2022-12-31T03:35:19;14.10;99.90
10812;DHT22;5458;51.496;7.334;2022-12-31T03:37:46;14.10;99.90
10812;DHT22;5458;51.496;7.334;2022-12-31T03:40:13;14.10;99.90
10812;DHT22;5458;51.496;7.334;2022-12-31T03:42:39;14.10;99.90
10812;DHT22;5458;51.496;7.334;2022-12-31T03:45:05;14.10;99.90
10812;DHT22;5458;51.496;7.334;2022-12-31T03:47:31;14.10;99.90
10812;DHT22;5458;51.496;7.334;2022-12-31T03:49:57;14.00;99.90
10812;DHT22;5458;51.496;7.334;2022-12-31T03:52:23;14.10;99.90
10812;DHT22;5458;51.496;7.334;2022-12-31T03:54:48;14.10;99.90
10812;DHT22;5458;51.496;7.334;2022-12-31T03:57:14;14.20;99.90
10812;DHT22;5458;51.496;7.334;2022-12-31T03:59:39;14.20;99.90
10812;DHT22;5458;51.496;7.334;2022-12-31T04:02:05;14.20;99.90
10812;DHT22;5458;51.496;7.334;2022-12-31T04:04:31;14.30;99.90
10812;DHT22;5458;51.496;7.334;2022-12-31T04:06:56;14.30;99.90
10812;DHT22;5458;51.496;7.334;2022-12-31T04:09:22;14.40;99.90
10812;DHT22;5458;51.496;7.334;2022-12-31T04:11:47;14.40;99.90
10812;DHT22;5458;51.496;7.334;2022-12-31T04:14:13;14.40;99.90
10812;DHT22;5458;51.496;7.334;2022-12-31T04:16:40;14.50;99.90
10812;DHT22;5458;51.496;7.334;2022-12-31T04:19:06;14.50;99.90
10812;DHT22;5458;51.496;7.334;2022-12-31T04:21:32;14.60;99.90
10812;DHT22;5458;51.496;7.334;2022-12-31T04:23:57;14.60;99.90
10812;DHT22;5458;51.496;7.334;2022-12-31T04:26:23;14.70;99.90
10812;DHT22;5458;51.496;7.334;2022-12-31T04:28:48;14.70;99.90
10812;DHT22;5458;51.496;7.334;2022-12-31T04:31:14;14.70;99.90
10812;DHT22;5458;51.496;7.334;2022-12-31T04:33:39;14.80;99.90
10812;DHT22;5458;51.496;7.334;2022-12-31T04:36:07;14.80;99.90
10812;DHT22;5458;51.496;7.334;2022-12-31T04:38:33;14.80;99.90
10812;DHT22;5458;51.496;7.334;2022-12-31T04:40:59;14.90;99.90
10812;DHT22;5458;51.496;7.334;2022-12-31T04:43:49;14.90;99.90
10812;DHT22;5458;51.496;7.334;2022-12-31T04:46:17;14.80;99.90
10812;DHT22;5458;51.496;7.334;2022-12-31T04:48:43;14.80;99.90
10812;DHT22;5458;51.496;7.334;2022-12-31T04:51:09;14.80;99.90
10812;DHT22;5458;51.496;7.334;2022-12-31T04:53:35;14.80;99.90
10812;DHT22;5458;51.496;7.334;2022-12-31T04:56:00;14.80;99.90
10812;DHT22;5458;51.496;7.334;2022-12-31T04:58:26;14.80;99.90
10812;DHT22;5458;51.496;7.334;2022-12-31T05:00:52;14.80;99.90
10812;DHT22;5458;51.496;7.334;2022-12-31T05:03:20;14.80;99.90
10812;DHT22;5458;51.496;7.334;2022-12-31T05:05:46;14.90;99.90
10812;DHT22;5458;51.496;7.334;2022-12-31T05:08:12;14.90;99.90
10812;DHT22;5458;51.496;7.334;2022-12-31T05:10:42;15.00;99.90
10812;DHT22;5458;51.496;7.334;2022-12-31T05:13:08;15.10;99.90
10812;DHT22;5458;51.496;7.334;2022-12-31T05:15:34;15.10;99.90
10812;DHT22;5458;51.496;7.334;2022-12-31T05:18:00;15.10;99.90
10812;DHT22;5458;51.496;7.334;2022-12-31T05:20:25;15.20;99.90
10812;DHT22;5458;51.496;7.334;2022-12-31T05:22:51;15.20;99.90
10812;DHT22;5458;51.496;7.334;2022-12-31T05:25:16;15.20;99.90
10812;DHT22;5458;51.496;7.334;2022-12-31T05:27:42;15.20;99.90
10812;DHT22;5458;51.496;7.334;2022-12-31T05:30:08;15.30;99.90
10812;DHT22;5458;51.496;7.334;2022-12-31T05:32:34;15.30;99.90
10812;DHT22;5458;51.496;7.334;2022-12-31T05:35:00;15.30;99.90
10812;DHT22;5458;51.496;7.334;2022-12-31T05:37:27;15.30;99.90
10812;DHT22;5458;51.496;7.334;2022-12-31T05:39:53;15.30;99.90
10812;DHT22;5458;51.496;7.334;2022-12-31T05:42:19;15.30;99.90
10812;DHT22;5458;51.496;7.334;2022-12-31T05:44:44;15.40;99.90
10812;DHT22;5458;51.496;7.334;2022-12-31T05:47:10;15.40;99.90
10812;DHT22;5458;51.496;7.334;2022-12-31T05:49:36;15.50;99.90
10812;DHT22;5458;51.496;7.334;2022-12-31T05:52:01;15.50;99.90
10812;DHT22;5458;51.496;7.334;2022-12-31T05:54:27;15.60;99.90
10812;DHT22;5458;51.496;7.334;2022-12-31T05:56:52;15.60;99.90
10812;DHT22;5458;51.496;7.334;2022-12-31T05:59:18;15.60;99.90
10812;DHT22;5458;51.496;7.334;2022-12-31T06:01:44;15.60;99.90
10812;DHT22;5458;51.496;7.334;2022-12-31T06:04:09;15.70;99.90
10812;DHT22;5458;51.496;7.334;2022-12-31T06:06:35;15.70;99.90
10812;DHT22;5458;51.496;7.334;2022-12-31T06:09:01;15.80;99.90
10812;DHT22;5458;51.496;7.334;2022-12-31T06:11:26;15.80;99.90
10812;DHT22;5458;51.496;7.334;2022-12-31T06:13:52;15.80;99.90
10812;DHT22;5458;51.496;7.334;2022-12-31T06:16:17;15.80;99.90
10812;DHT22;5458;51.496;7.334;2022-12-31T06:18:46;15.80;99.90
10812;DHT22;5458;51.496;7.334;2022-12-31T06:21:11;15.80;99.90
10812;DHT22;5458;51.496;7.334;2022-12-31T06:23:39;15.80;99.90
10812;DHT22;5458;51.496;7.334;2022-12-31T06:26:05;15.90;99.90
10812;DHT22;5458;51.496;7.334;2022-12-31T06:28:31;15.80;99.90
10812;DHT22;5458;51.496;7.334;2022-12-31T06:31:01;15.80;99.90
10812;DHT22;5458;51.496;7.334;2022-12-31T06:33:27;15.90;99.90
10812;DHT22;5458;51.496;7.334;2022-12-31T06:35:56;15.90;99.90
10812;DHT22;5458;51.496;7.334;2022-12-31T06:38:23;15.90;99.90
10812;DHT22;5458;51.496;7.334;2022-12-31T06:40:49;15.90;99.90
10812;DHT22;5458;51.496;7.334;2022-12-31T06:43:15;15.90;99.90
10812;DHT22;5458;51.496;7.334;2022-12-31T06:45:40;16.00;99.90
10812;DHT22;5458;51.496;7.334;2022-12-31T06:48:06;15.90;99.90
10812;DHT22;5458;51.496;7.334;2022-12-31T06:50:33;16.00;99.90
10812;DHT22;5458;51.496;7.334;2022-12-31T06:52:58;16.00;99.90
10812;DHT22;5458;51.496;7.334;2022-12-31T06:55:24;16.00;99.90
10812;DHT22;5458;51.496;7.334;2022-12-31T06:57:50;15.90;99.90
10812;DHT22;5458;51.496;7.334;2022-12-31T07:00:16;16.00;99.90
10812;DHT22;5458;51.496;7.334;2022-12-31T07:21:14;16.00;99.90
10812;DHT22;5458;51.496;7.334;2022-12-31T07:23:41;16.00;99.90
10812;DHT22;5458;51.496;7.334;2022-12-31T07:34:37;16.10;99.90
10812;DHT22;5458;51.496;7.334;2022-12-31T07:40:18;16.20;99.90
10812;DHT22;5458;51.496;7.334;2022-12-31T07:45:51;16.20;99.90
10812;DHT22;5458;51.496;7.334;2022-12-31T07:48:25;16.20;99.90
10812;DHT22;5458;51.496;7.334;2022-12-31T07:50:54;16.30;99.90
10812;DHT22;5458;51.496;7.334;2022-12-31T07:53:20;16.30;99.90
10812;DHT22;5458;51.496;7.334;2022-12-31T07:55:48;16.40;99.90
10812;DHT22;5458;51.496;7.334;2022-12-31T07:58:49;16.40;99.90
10812;DHT22;5458;51.496;7.334;2022-12-31T08:01:49;16.40;99.90
10812;DHT22;5458;51.496;7.334;2022-12-31T08:07:30;16.30;99.90
10812;DHT22;5458;51.496;7.334;2022-12-31T08:12:33;16.40;99.90
10812;DHT22;5458;51.496;7.334;2022-12-31T08:15:00;16.40;99.90
10812;DHT22;5458;51.496;7.334;2022-12-31T08:17:26;16.40;99.90
10812;DHT22;5458;51.496;7.334;2022-12-31T08:19:52;16.40;99.90
10812;DHT22;5458;51.496;7.334;2022-12-31T08:28:02;16.40;99.90
10812;DHT22;5458;51.496;7.334;2022-12-31T08:30:43;16.40;99.90
10812;DHT22;5458;51.496;7.334;2022-12-31T08:33:27;16.50;99.90
10812;DHT22;5458;51.496;7.334;2022-12-31T08:39:06;16.50;99.90
10812;DHT22;5458;51.496;7.334;2022-12-31T08:41:41;16.50;99.90
10812;DHT22;5458;51.496;7.334;2022-12-31T08:49:57;16.60;99.90
10812;DHT22;5458;51.496;7.334;2022-12-31T08:52:25;16.60;99.90
10812;DHT22;5458;51.496;7.334;2022-12-31T08:54:51;16.70;99.90
10812;DHT22;5458;51.496;7.334;2022-12-31T08:57:31;16.70;99.90
10812;DHT22;5458;51.496;7.334;2022-12-31T09:00:12;16.70;99.90
10812;DHT22;5458;51.496;7.334;2022-12-31T09:05:30;16.70;99.90
10812;DHT22;5458;51.496;7.334;2022-12-31T09:10:43;16.70;99.90
10812;DHT22;5458;51.496;7.334;2022-12-31T09:13:21;16.80;99.90
10812;DHT22;5458;51.496;7.334;2022-12-31T09:16:06;16.80;99.90
10812;DHT22;5458;51.496;7.334;2022-12-31T09:18:41;16.80;99.90
10812;DHT22;5458;51.496;7.334;2022-12-31T09:21:12;16.80;99.90
10812;DHT22;5458;51.496;7.334;2022-12-31T09:23:39;16.80;99.90
10812;DHT22;5458;51.496;7.334;2022-12-31T09:26:33;16.80;99.90
10812;DHT22;5458;51.496;7.334;2022-12-31T09:32:07;16.80;99.90
10812;DHT22;5458;51.496;7.334;2022-12-31T09:35:00;16.90;99.90
10812;DHT22;5458;51.496;7.334;2022-12-31T09:37:43;16.90;99.90
10812;DHT22;5458;51.496;7.334;2022-12-31T09:40:28;16.90;99.90
10812;DHT22;5458;51.496;7.334;2022-12-31T09:49:17;16.90;99.90
10812;DHT22;5458;51.496;7.334;2022-12-31T09:54:54;16.90;99.90
10812;DHT22;5458;51.496;7.334;2022-12-31T09:57:40;16.90;99.90
10812;DHT22;5458;51.496;7.334;2022-12-31T10:05:52;16.90;99.90
10812;DHT22;5458;51.496;7.334;2022-12-31T10:11:02;16.90;99.90
10812;DHT22;5458;51.496;7.334;2022-12-31T10:16:51;16.90;99.90
10812;DHT22;5458;51.496;7.334;2022-12-31T10:22:19;16.90;99.90
10812;DHT22;5458;51.496;7.334;2022-12-31T10:28:00;17.00;99.90
10812;DHT22;5458;51.496;7.334;2022-12-31T10:30:33;17.00;99.90
10812;DHT22;5458;51.496;7.334;2022-12-31T10:33:31;17.00;99.90
10812;DHT22;5458;51.496;7.334;2022-12-31T10:36:19;17.10;99.90
10812;DHT22;5458;51.496;7.334;2022-12-31T10:58:34;17.40;99.90
10812;DHT22;5458;51.496;7.334;2022-12-31T11:01:27;17.40;99.90
10812;DHT22;5458;51.496;7.334;2022-12-31T11:15:12;17.50;99.90
10812;DHT22;5458;51.496;7.334;2022-12-31T11:18:14;17.50;99.90
10812;DHT22;5458;51.496;7.334;2022-12-31T11:37:44;17.80;99.90
10812;DHT22;5458;51.496;7.334;2022-12-31T11:40:26;17.80;99.90
10812;DHT22;5458;51.496;7.334;2022-12-31T11:45:38;17.70;99.90
10812;DHT22;5458;51.496;7.334;2022-12-31T12:00:35;17.50;99.90
10812;DHT22;5458;51.496;7.334;2022-12-31T12:02:42;17.50;99.90
10812;DHT22;5458;51.496;7.334;2022-12-31T12:05:11;17.50;99.90
10812;DHT22;5458;51.496;7.334;2022-12-31T12:07:37;17.40;99.90
10812;DHT22;5458;51.496;7.334;2022-12-31T12:12:49;17.40;99.90
10812;DHT22;5458;51.496;7.334;2022-12-31T12:15:25;17.40;99.90
10812;DHT22;5458;51.496;7.334;2022-12-31T12:17:55;17.40;99.90
10812;DHT22;5458;51.496;7.334;2022-12-31T12:20:28;17.40;99.90
10812;DHT22;5458;51.496;7.334;2022-12-31T12:22:56;17.30;99.90
10812;DHT22;5458;51.496;7.334;2022-12-31T12:25:25;17.30;99.90
10812;DHT22;5458;51.496;7.334;2022-12-31T12:27:52;17.30;99.90
10812;DHT22;5458;51.496;7.334;2022-12-31T12:30:20;17.30;99.90
10812;DHT22;5458;51.496;7.334;2022-12-31T12:32:56;17.30;99.90
10812;DHT22;5458;51.496;7.334;2022-12-31T12:35:28;17.20;99.90
10812;DHT22;5458;51.496;7.334;2022-12-31T12:38:20;17.10;99.90
10812;DHT22;5458;51.496;7.334;2022-12-31T12:40:58;17.00;99.90
10812;DHT22;5458;51.496;7.334;2022-12-31T12:43:32;17.00;99.90
10812;DHT22;5458;51.496;7.334;2022-12-31T12:46:18;16.90;99.90
10812;DHT22;5458;51.496;7.334;2022-12-31T12:48:46;16.90;99.90
10812;DHT22;5458;51.496;7.334;2022-12-31T12:54:27;16.80;99.90
10812;DHT22;5458;51.496;7.334;2022-12-31T12:57:35;16.80;99.90
10812;DHT22;5458;51.496;7.334;2022-12-31T13:00:18;16.70;99.90
10812;DHT22;5458;51.496;7.334;2022-12-31T13:11:10;16.50;99.90
10812;DHT22;5458;51.496;7.334;2022-12-31T13:13:55;16.50;99.90
10812;DHT22;5458;51.496;7.334;2022-12-31T13:22:07;16.60;99.90
10812;DHT22;5458;51.496;7.334;2022-12-31T13:25:14;16.60;99.90
10812;DHT22;5458;51.496;7.334;2022-12-31T13:27:45;16.60;99.90
10812;DHT22;5458;51.496;7.334;2022-12-31T13:32:44;16.70;99.90
10812;DHT22;5458;51.496;7.334;2022-12-31T13:38:11;16.70;99.90
10812;DHT22;5458;51.496;7.334;2022-12-31T13:41:06;16.70;99.90
10812;DHT22;5458;51.496;7.334;2022-12-31T13:48:36;16.60;99.90
10812;DHT22;5458;51.496;7.334;2022-12-31T13:51:14;16.70;99.90
10812;DHT22;5458;51.496;7.334;2022-12-31T13:56:25;16.70;99.90
10812;DHT22;5458;51.496;7.334;2022-12-31T13:59:16;16.80;99.90
10812;DHT22;5458;51.496;7.334;2022-12-31T14:04:53;16.80;99.90
10812;DHT22;5458;51.496;7.334;2022-12-31T14:07:34;16.80;99.90
10812;DHT22;5458;51.496;7.334;2022-12-31T14:10:00;16.80;99.90
10812;DHT22;5458;51.496;7.334;2022-12-31T14:12:48;16.80;99.90
10812;DHT22;5458;51.496;7.334;2022-12-31T14:20:53;16.90;99.90
10812;DHT22;5458;51.496;7.334;2022-12-31T14:28:48;16.80;99.90
10812;DHT22;5458;51.496;7.334;2022-12-31T14:37:19;16.80;99.90
10812;DHT22;5458;51.496;7.334;2022-12-31T14:39:57;16.80;99.90
10812;DHT22;5458;51.496;7.334;2022-12-31T14:43:24;16.70;99.90
10812;DHT22;5458;51.496;7.334;2022-12-31T14:45:45;16.70;99.90
10812;DHT22;5458;51.496;7.334;2022-12-31T14:50:50;16.70;99.90
10812;DHT22;5458;51.496;7.334;2022-12-31T14:53:26;16.60;99.90
10812;DHT22;5458;51.496;7.334;2022-12-31T14:58:37;16.60;99.90
10812;DHT22;5458;51.496;7.334;2022-12-31T15:01:05;16.50;99.90
10812;DHT22;5458;51.496;7.334;2022-12-31T15:03:38;16.50;99.90
10812;DHT22;5458;51.496;7.334;2022-12-31T15:14:31;16.40;99.90
10812;DHT22;5458;51.496;7.334;2022-12-31T15:17:10;16.30;99.90
10812;DHT22;5458;51.496;7.334;2022-12-31T15:19:49;16.30;99.90
10812;DHT22;5458;51.496;7.334;2022-12-31T15:25:00;16.30;99.90
10812;DHT22;5458;51.496;7.334;2022-12-31T15:27:34;16.20;99.90
10812;DHT22;5458;51.496;7.334;2022-12-31T15:30:02;16.20;99.90
10812;DHT22;5458;51.496;7.334;2022-12-31T15:32:39;16.20;99.90
10812;DHT22;5458;51.496;7.334;2022-12-31T15:35:28;16.20;99.90
10812;DHT22;5458;51.496;7.334;2022-12-31T15:38:02;16.10;99.90
10812;DHT22;5458;51.496;7.334;2022-12-31T15:40:28;16.10;99.90
10812;DHT22;5458;51.496;7.334;2022-12-31T15:43:03;16.10;99.90
10812;DHT22;5458;51.496;7.334;2022-12-31T15:45:37;16.10;99.90
10812;DHT22;5458;51.496;7.334;2022-12-31T15:48:29;16.10;99.90
10812;DHT22;5458;51.496;7.334;2022-12-31T15:50:57;16.10;99.90
10812;DHT22;5458;51.496;7.334;2022-12-31T15:53:33;16.10;99.90
10812;DHT22;5458;51.496;7.334;2022-12-31T15:56:01;16.10;99.90
10812;DHT22;5458;51.496;7.334;2022-12-31T15:58:30;16.10;99.90
10812;DHT22;5458;51.496;7.334;2022-12-31T16:01:17;16.10;99.90
10812;DHT22;5458;51.496;7.334;2022-12-31T16:03:47;16.10;99.90
10812;DHT22;5458;51.496;7.334;2022-12-31T16:06:15;16.10;99.90
10812;DHT22;5458;51.496;7.334;2022-12-31T16:08:45;16.10;99.90
10812;DHT22;5458;51.496;7.334;2022-12-31T16:11:12;16.10;99.90
10812;DHT22;5458;51.496;7.334;2022-12-31T16:13:43;16.10;99.90
10812;DHT22;5458;51.496;7.334;2022-12-31T16:18:46;16.20;99.90
10812;DHT22;5458;51.496;7.334;2022-12-31T16:24:26;16.10;99.90
10812;DHT22;5458;51.496;7.334;2022-12-31T16:26:51;16.20;99.90
10812;DHT22;5458;51.496;7.334;2022-12-31T16:29:19;16.20;99.90
10812;DHT22;5458;51.496;7.334;2022-12-31T16:31:48;16.20;99.90
10812;DHT22;5458;51.496;7.334;2022-12-31T16:34:22;16.20;99.90
10812;DHT22;5458;51.496;7.334;2022-12-31T16:37:02;16.20;99.90
10812;DHT22;5458;51.496;7.334;2022-12-31T16:44:37;16.20;99.90
10812;DHT22;5458;51.496;7.334;2022-12-31T16:47:05;16.20;99.90
10812;DHT22;5458;51.496;7.334;2022-12-31T16:49:32;16.10;99.90
10812;DHT22;5458;51.496;7.334;2022-12-31T16:52:23;16.10;99.90
10812;DHT22;5458;51.496;7.334;2022-12-31T16:54:49;16.10;99.90
10812;DHT22;5458;51.496;7.334;2022-12-31T16:57:21;16.10;99.90
10812;DHT22;5458;51.496;7.334;2022-12-31T16:59:50;16.10;99.90
10812;DHT22;5458;51.496;7.334;2022-12-31T17:02:22;16.00;99.90
10812;DHT22;5458;51.496;7.334;2022-12-31T17:04:51;16.00;99.90
10812;DHT22;5458;51.496;7.334;2022-12-31T17:07:37;16.00;99.90
10812;DHT22;5458;51.496;7.334;2022-12-31T17:12:45;16.00;99.90
10812;DHT22;5458;51.496;7.334;2022-12-31T17:15:21;16.00;99.90
10812;DHT22;5458;51.496;7.334;2022-12-31T17:17:52;16.00;99.90
10812;DHT22;5458;51.496;7.334;2022-12-31T17:20:28;16.00;99.90
10812;DHT22;5458;51.496;7.334;2022-12-31T17:22:58;16.00;99.90
10812;DHT22;5458;51.496;7.334;2022-12-31T17:25:29;16.00;99.90
10812;DHT22;5458;51.496;7.334;2022-12-31T17:28:02;16.00;99.90
10812;DHT22;5458;51.496;7.334;2022-12-31T17:35:48;15.90;99.90
10812;DHT22;5458;51.496;7.334;2022-12-31T17:40:43;15.90;99.90
10812;DHT22;5458;51.496;7.334;2022-12-31T17:43:10;15.80;99.90
10812;DHT22;5458;51.496;7.334;2022-12-31T17:45:37;15.90;99.90
10812;DHT22;5458;51.496;7.334;2022-12-31T17:48:03;15.90;99.90
10812;DHT22;5458;51.496;7.334;2022-12-31T17:50:29;15.90;99.90
10812;DHT22;5458;51.496;7.334;2022-12-31T17:53:09;15.80;99.90
10812;DHT22;5458;51.496;7.334;2022-12-31T17:55:35;15.90;99.90
10812;DHT22;5458;51.496;7.334;2022-12-31T17:58:03;15.90;99.90
10812;DHT22;5458;51.496;7.334;2022-12-31T18:00:30;15.90;99.90
10812;DHT22;5458;51.496;7.334;2022-12-31T18:02:57;15.90;99.90
10812;DHT22;5458;51.496;7.334;2022-12-31T18:05:23;15.90;99.90
10812;DHT22;5458;51.496;7.334;2022-12-31T18:07:49;15.90;99.90
10812;DHT22;5458;51.496;7.334;2022-12-31T18:10:17;15.90;99.90
10812;DHT22;5458;51.496;7.334;2022-12-31T18:12:44;15.80;99.90
10812;DHT22;5458;51.496;7.334;2022-12-31T18:15:18;15.90;99.90
10812;DHT22;5458;51.496;7.334;2022-12-31T18:17:43;15.90;99.90
10812;DHT22;5458;51.496;7.334;2022-12-31T18:20:10;15.80;99.90
10812;DHT22;5458;51.496;7.334;2022-12-31T18:22:36;15.90;99.90
10812;DHT22;5458;51.496;7.334;2022-12-31T18:25:03;15.90;99.90
10812;DHT22;5458;51.496;7.334;2022-12-31T18:27:28;15.80;99.90
10812;DHT22;5458;51.496;7.334;2022-12-31T18:29:58;15.80;99.90
10812;DHT22;5458;51.496;7.334;2022-12-31T18:32:28;15.80;99.90
10812;DHT22;5458;51.496;7.334;2022-12-31T18:34:54;15.80;99.90
10812;DHT22;5458;51.496;7.334;2022-12-31T18:37:20;15.80;99.90
10812;DHT22;5458;51.496;7.334;2022-12-31T18:39:46;15.80;99.90
10812;DHT22;5458;51.496;7.334;2022-12-31T18:42:13;15.80;99.90
10812;DHT22;5458;51.496;7.334;2022-12-31T18:44:40;15.80;99.90
10812;DHT22;5458;51.496;7.334;2022-12-31T18:47:14;15.80;99.90
10812;DHT22;5458;51.496;7.334;2022-12-31T18:49:40;15.80;99.90
10812;DHT22;5458;51.496;7.334;2022-12-31T18:52:15;15.80;99.90
10812;DHT22;5458;51.496;7.334;2022-12-31T18:54:41;15.70;99.90
10812;DHT22;5458;51.496;7.334;2022-12-31T18:57:11;15.70;99.90
10812;DHT22;5458;51.496;7.334;2022-12-31T18:59:37;15.70;99.90
10812;DHT22;5458;51.496;7.334;2022-12-31T19:02:04;15.70;99.90
10812;DHT22;5458;51.496;7.334;2022-12-31T19:04:30;15.70;99.90
10812;DHT22;5458;51.496;7.334;2022-12-31T19:06:56;15.70;99.90
10812;DHT22;5458;51.496;7.334;2022-12-31T19:09:22;15.70;99.90
10812;DHT22;5458;51.496;7.334;2022-12-31T19:11:47;15.70;99.90
10812;DHT22;5458;51.496;7.334;2022-12-31T19:14:21;15.70;99.90
10812;DHT22;5458;51.496;7.334;2022-12-31T19:16:49;15.80;99.90
10812;DHT22;5458;51.496;7.334;2022-12-31T19:19:15;15.70;99.90
10812;DHT22;5458;51.496;7.334;2022-12-31T19:21:41;15.80;99.90
10812;DHT22;5458;51.496;7.334;2022-12-31T19:24:21;15.70;99.90
10812;DHT22;5458;51.496;7.334;2022-12-31T19:26:47;15.70;99.90
10812;DHT22;5458;51.496;7.334;2022-12-31T19:29:18;15.70;99.90
10812;DHT22;5458;51.496;7.334;2022-12-31T19:31:44;15.70;99.90
10812;DHT22;5458;51.496;7.334;2022-12-31T19:34:10;15.80;99.90
10812;DHT22;5458;51.496;7.334;2022-12-31T19:36:36;15.70;99.90
10812;DHT22;5458;51.496;7.334;2022-12-31T19:39:05;15.70;99.90
10812;DHT22;5458;51.496;7.334;2022-12-31T19:41:32;15.70;99.90
10812;DHT22;5458;51.496;7.334;2022-12-31T19:43:57;15.70;99.90
10812;DHT22;5458;51.496;7.334;2022-12-31T19:46:23;15.70;99.90
10812;DHT22;5458;51.496;7.334;2022-12-31T19:48:49;15.80;99.90
10812;DHT22;5458;51.496;7.334;2022-12-31T19:51:17;15.80;99.90
10812;DHT22;5458;51.496;7.334;2022-12-31T19:53:44;15.70;99.90
10812;DHT22;5458;51.496;7.334;2022-12-31T19:56:12;15.70;99.90
10812;DHT22;5458;51.496;7.334;2022-12-31T19:58:38;15.70;99.90
10812;DHT22;5458;51.496;7.334;2022-12-31T20:01:04;15.70;99.90
10812;DHT22;5458;51.496;7.334;2022-12-31T20:03:30;15.70;99.90
10812;DHT22;5458;51.496;7.334;2022-12-31T20:06:02;15.80;99.90
10812;DHT22;5458;51.496;7.334;2022-12-31T20:08:28;15.70;99.90
10812;DHT22;5458;51.496;7.334;2022-12-31T20:10:54;15.80;99.90
10812;DHT22;5458;51.496;7.334;2022-12-31T20:13:25;15.80;99.90
10812;DHT22;5458;51.496;7.334;2022-12-31T20:15:52;15.80;99.90
10812;DHT22;5458;51.496;7.334;2022-12-31T20:18:17;15.80;99.90
10812;DHT22;5458;51.496;7.334;2022-12-31T20:20:46;15.80;99.90
10812;DHT22;5458;51.496;7.334;2022-12-31T20:23:13;15.80;99.90
10812;DHT22;5458;51.496;7.334;2022-12-31T20:25:38;15.80;99.90
10812;DHT22;5458;51.496;7.334;2022-12-31T20:28:04;15.80;99.90